createdAt,value
2023-03-15T00:01:35.699Z,88.73
2023-03-15T00:04:02.380Z,88.75
2023-03-15T00:06:29.016Z,88.43
2023-03-15T00:08:55.560Z,88.53
2023-03-15T00:11:22.278Z,88.33
2023-03-15T00:13:50.182Z,88.82
2023-03-15T00:16:17.063Z,88.94
2023-03-15T00:18:44.132Z,89.35
2023-03-15T00:21:10.824Z,89.50
2023-03-15T00:23:37.517Z,89.43
2023-03-15T00:26:04.498Z,90.13
2023-03-15T00:28:31.062Z,90.12
2023-03-15T00:31:13.283Z,90.08
2023-03-15T00:33:39.949Z,90.12
2023-03-15T00:36:08.475Z,90.94
2023-03-15T00:38:36.840Z,90.62
2023-03-15T00:41:07.016Z,91.09
2023-03-15T00:43:33.810Z,90.61
2023-03-15T00:46:01.036Z,91.19
2023-03-15T00:48:30.032Z,90.98
2023-03-15T00:51:07.236Z,90.79
2023-03-15T00:53:34.600Z,90.59
2023-03-15T00:56:04.881Z,90.50
2023-03-15T00:58:31.636Z,90.74
2023-03-15T01:00:58.348Z,91.24
2023-03-15T01:03:25.067Z,91.22
2023-03-15T01:05:53.102Z,90.71
2023-03-15T01:08:19.688Z,91.10
2023-03-15T01:10:46.368Z,90.77
2023-03-15T01:13:13.068Z,90.51
2023-03-15T01:15:39.721Z,90.62
2023-03-15T01:18:06.366Z,91.23
2023-03-15T01:20:32.998Z,91.16
2023-03-15T01:23:01.062Z,91.13
2023-03-15T01:25:27.697Z,91.31
2023-03-15T01:27:54.400Z,91.35
2023-03-15T01:30:20.986Z,91.44
2023-03-15T01:32:48.223Z,90.98
2023-03-15T01:35:14.974Z,90.85
2023-03-15T01:37:41.623Z,91.27
2023-03-15T01:40:13.897Z,91.12
2023-03-15T01:42:52.170Z,90.88
2023-03-15T01:45:56.174Z,91.34
2023-03-15T01:48:27.884Z,91.75
2023-03-15T01:50:56.188Z,91.63
2023-03-15T01:53:25.303Z,92.11
2023-03-15T01:55:54.434Z,92.56
2023-03-15T01:58:28.683Z,93.02
2023-03-15T02:00:56.614Z,93.07
2023-03-15T02:03:29.781Z,93.09
2023-03-15T02:05:58.819Z,92.91
2023-03-15T02:08:41.230Z,92.92
2023-03-15T02:11:11.386Z,91.29
2023-03-15T02:13:38.374Z,91.29
2023-03-15T02:16:08.259Z,91.43
2023-03-15T02:18:44.436Z,91.36
2023-03-15T02:21:27.785Z,92.18
2023-03-15T02:24:01.287Z,92.92
2023-03-15T02:26:38.686Z,92.32
2023-03-15T02:29:06.902Z,93.10
2023-03-15T02:31:34.589Z,93.65
2023-03-15T02:34:01.530Z,93.46
2023-03-15T02:36:29.883Z,93.29
2023-03-15T02:38:56.916Z,93.24
2023-03-15T02:41:29.566Z,93.10
2023-03-15T02:44:01.297Z,92.77
2023-03-15T02:46:29.712Z,93.48
2023-03-15T02:48:57.308Z,92.83
2023-03-15T02:51:27.057Z,93.39
2023-03-15T02:53:53.874Z,93.23
2023-03-15T02:56:20.988Z,93.32
2023-03-15T02:58:47.558Z,92.96
2023-03-15T03:01:16.983Z,92.46
2023-03-15T03:03:46.394Z,92.83
2023-03-15T03:06:17.905Z,93.11
2023-03-15T03:08:45.392Z,93.20
2023-03-15T03:11:12.864Z,93.41
2023-03-15T03:13:39.636Z,92.85
2023-03-15T03:16:07.363Z,93.16
2023-03-15T03:18:34.333Z,93.00
2023-03-15T03:21:04.618Z,92.47
2023-03-15T03:23:32.122Z,92.40
2023-03-15T03:25:59.390Z,92.70
2023-03-15T03:28:28.519Z,92.98
2023-03-15T03:30:56.308Z,93.41
2023-03-15T03:33:23.132Z,92.93
2023-03-15T03:35:50.942Z,92.64
2023-03-15T03:38:19.356Z,92.44
2023-03-15T03:40:51.769Z,92.49
2023-03-15T03:43:18.705Z,91.68
2023-03-15T03:45:45.933Z,92.18
2023-03-15T03:48:13.198Z,92.36
2023-03-15T03:50:39.891Z,92.69
2023-03-15T03:53:06.624Z,92.56
2023-03-15T03:55:37.892Z,92.76
2023-03-15T03:58:04.570Z,92.47
2023-03-15T04:00:39.236Z,92.51
2023-03-15T04:03:07.400Z,92.74
2023-03-15T04:05:39.585Z,93.00
2023-03-15T04:08:06.477Z,93.16
2023-03-15T04:10:39.453Z,92.97
2023-03-15T04:13:06.129Z,93.02
2023-03-15T04:15:32.959Z,93.44
2023-03-15T04:17:59.718Z,93.04
2023-03-15T04:20:32.600Z,92.97
2023-03-15T04:22:59.214Z,92.82
2023-03-15T04:25:33.461Z,92.63
2023-03-15T04:28:30.391Z,92.43
2023-03-15T04:31:11.247Z,92.75
2023-03-15T04:33:58.190Z,92.88
2023-03-15T04:36:50.881Z,93.04
2023-03-15T04:39:32.387Z,92.92
2023-03-15T04:42:17.332Z,92.69
2023-03-15T04:45:10.521Z,92.83
2023-03-15T04:47:55.637Z,93.19
2023-03-15T04:50:38.784Z,92.95
2023-03-15T04:53:31.394Z,93.25
2023-03-15T04:56:08.880Z,93.28
2023-03-15T04:58:45.443Z,92.66
2023-03-15T05:01:32.048Z,92.70
2023-03-15T05:04:19.531Z,93.09
2023-03-15T05:07:12.609Z,92.99
2023-03-15T05:10:24.784Z,93.34
2023-03-15T05:13:10.072Z,93.39
2023-03-15T05:16:00.234Z,93.50
2023-03-15T05:18:38.532Z,93.39
2023-03-15T05:21:35.522Z,93.38
2023-03-15T05:24:31.766Z,93.45
2023-03-15T05:27:18.542Z,93.44
2023-03-15T05:30:08.754Z,93.26
2023-03-15T05:32:57.363Z,93.37
2023-03-15T05:36:02.689Z,93.23
2023-03-15T05:38:37.511Z,93.56
2023-03-15T05:41:26.926Z,93.35
2023-03-15T05:44:13.381Z,93.29
2023-03-15T05:47:15.482Z,93.59
2023-03-15T05:50:00.562Z,94.19
2023-03-15T05:52:41.406Z,93.79
2023-03-15T05:55:33.887Z,93.72
2023-03-15T05:58:19.200Z,94.11
2023-03-15T06:01:05.639Z,94.09
2023-03-15T06:04:07.712Z,93.73
2023-03-15T06:06:35.463Z,94.03
2023-03-15T06:09:05.252Z,93.88
2023-03-15T06:11:32.426Z,94.06
2023-03-15T06:14:00.022Z,94.00
2023-03-15T06:16:37.609Z,94.25
2023-03-15T06:19:04.507Z,94.06
2023-03-15T06:21:31.753Z,93.80
2023-03-15T06:23:59.337Z,94.04
2023-03-15T06:26:25.981Z,94.22
2023-03-15T06:28:57.732Z,94.32
2023-03-15T06:31:25.422Z,94.50
2023-03-15T06:34:01.838Z,93.81
2023-03-15T06:36:28.594Z,94.16
2023-03-15T06:38:55.744Z,94.35
2023-03-15T06:41:22.297Z,93.93
2023-03-15T06:43:54.103Z,93.87
2023-03-15T06:46:21.081Z,93.81
2023-03-15T06:48:47.672Z,94.36
2023-03-15T06:51:16.856Z,94.05
2023-03-15T06:53:43.678Z,94.31
2023-03-15T06:56:10.764Z,94.28
2023-03-15T06:58:37.864Z,94.11
2023-03-15T07:01:04.893Z,93.88
2023-03-15T07:03:31.645Z,93.96
2023-03-15T07:05:58.275Z,94.03
2023-03-15T07:08:26.272Z,93.80
2023-03-15T07:10:52.976Z,93.53
2023-03-15T07:13:19.902Z,93.85
2023-03-15T07:15:50.924Z,93.27
2023-03-15T07:18:17.433Z,93.21
2023-03-15T07:20:43.967Z,93.30
2023-03-15T07:23:10.504Z,92.91
2023-03-15T07:25:54.042Z,92.91
2023-03-15T07:28:22.050Z,92.87
2023-03-15T07:30:59.293Z,92.68
2023-03-15T07:33:27.815Z,92.84
2023-03-15T07:35:54.927Z,92.54
2023-03-15T07:38:23.076Z,92.81
2023-03-15T07:40:50.998Z,91.79
2023-03-15T07:43:17.678Z,90.42
2023-03-15T07:45:48.192Z,91.53
2023-03-15T07:48:15.078Z,91.50
2023-03-15T07:50:41.815Z,90.16
2023-03-15T07:53:08.499Z,89.66
2023-03-15T07:55:35.556Z,89.95
2023-03-15T07:58:03.911Z,90.31
2023-03-15T08:00:30.456Z,89.35
2023-03-15T08:02:57.205Z,89.13
2023-03-15T08:05:24.010Z,88.29
2023-03-15T08:07:50.902Z,87.62
2023-03-15T08:10:18.578Z,85.66
2023-03-15T08:12:45.239Z,84.56
2023-03-15T08:15:14.176Z,84.99
2023-03-15T08:17:42.144Z,84.22
2023-03-15T08:20:11.306Z,84.29
2023-03-15T08:22:39.174Z,84.07
2023-03-15T08:25:06.649Z,84.52
2023-03-15T08:27:33.242Z,83.82
2023-03-15T08:29:59.753Z,83.67
2023-03-15T08:32:27.752Z,83.99
2023-03-15T08:34:54.438Z,83.60
2023-03-15T08:37:21.005Z,82.33
2023-03-15T08:39:47.537Z,83.11
2023-03-15T08:42:14.144Z,83.53
2023-03-15T08:44:40.669Z,83.00
2023-03-15T08:47:07.799Z,82.03
2023-03-15T08:49:35.900Z,81.93
2023-03-15T08:52:02.514Z,81.60
2023-03-15T08:54:29.037Z,81.77
2023-03-15T08:56:55.562Z,81.52
2023-03-15T08:59:31.436Z,79.66
2023-03-15T09:01:59.766Z,78.84
2023-03-15T09:04:26.621Z,78.29
2023-03-15T09:06:54.597Z,77.37
2023-03-15T09:09:21.191Z,77.35
2023-03-15T09:11:47.798Z,77.92
2023-03-15T09:14:14.472Z,77.81
2023-03-15T09:16:41.217Z,78.30
2023-03-15T09:19:07.865Z,79.31
2023-03-15T09:21:34.594Z,78.41
2023-03-15T09:24:02.815Z,78.51
2023-03-15T09:26:29.418Z,77.00
2023-03-15T09:28:55.933Z,76.12
2023-03-15T09:31:22.642Z,73.40
2023-03-15T09:33:49.268Z,73.71
2023-03-15T09:36:15.859Z,74.11
2023-03-15T09:38:42.921Z,74.35
2023-03-15T09:41:19.803Z,74.90
2023-03-15T09:44:01.771Z,75.19
2023-03-15T09:46:31.023Z,75.23
2023-03-15T09:49:04.189Z,74.70
2023-03-15T09:51:38.415Z,74.67
2023-03-15T09:54:11.637Z,73.72
2023-03-15T09:56:42.687Z,73.64
2023-03-15T09:59:10.406Z,73.16
2023-03-15T10:01:39.550Z,73.67
2023-03-15T10:04:13.002Z,73.32
2023-03-15T10:06:45.399Z,73.80
2023-03-15T10:09:15.349Z,73.55
2023-03-15T10:11:53.250Z,72.29
2023-03-15T10:14:31.428Z,72.00
2023-03-15T10:16:58.060Z,73.17
2023-03-15T10:19:35.943Z,71.95
2023-03-15T10:22:11.015Z,72.22
2023-03-15T10:24:45.789Z,70.49
2023-03-15T10:27:20.899Z,71.46
2023-03-15T10:29:49.641Z,71.93
2023-03-15T10:32:18.319Z,72.44
2023-03-15T10:34:48.713Z,71.33
2023-03-15T10:37:15.297Z,71.03
2023-03-15T10:39:41.993Z,69.37
2023-03-15T10:42:28.474Z,70.43
2023-03-15T10:44:55.978Z,69.93
2023-03-15T10:47:24.760Z,69.09
2023-03-15T10:49:56.757Z,69.54
2023-03-15T10:52:34.584Z,68.33
2023-03-15T10:55:05.096Z,64.40
2023-03-15T10:57:37.614Z,64.71
2023-03-15T11:00:18.413Z,64.93
2023-03-15T11:02:49.770Z,65.48
2023-03-15T11:05:18.211Z,66.23
2023-03-15T11:07:54.980Z,64.92
2023-03-15T11:10:22.820Z,66.46
2023-03-15T11:12:51.452Z,65.92
2023-03-15T11:15:18.724Z,66.07
2023-03-15T11:17:47.941Z,66.21
2023-03-15T11:20:26.513Z,67.21
2023-03-15T11:22:53.940Z,65.70
2023-03-15T11:25:24.927Z,63.73
2023-03-15T11:27:53.367Z,62.85
2023-03-15T11:30:28.370Z,63.90
2023-03-15T11:32:55.408Z,62.76
2023-03-15T11:35:29.960Z,66.52
2023-03-15T11:38:13.079Z,65.83
2023-03-15T11:40:44.106Z,64.14
2023-03-15T11:43:19.789Z,63.85
2023-03-15T11:45:53.650Z,62.42
2023-03-15T11:48:50.596Z,62.85
2023-03-15T11:51:17.548Z,62.04
2023-03-15T11:53:47.309Z,65.24
2023-03-15T11:56:24.166Z,62.06
2023-03-15T11:59:06.971Z,60.38
2023-03-15T12:01:35.014Z,62.54
2023-03-15T12:04:28.958Z,64.44
2023-03-15T12:06:57.163Z,63.11
2023-03-15T12:09:52.226Z,58.52
2023-03-15T12:12:38.566Z,57.18
2023-03-15T12:15:30.235Z,58.24
2023-03-15T12:17:58.061Z,58.65
2023-03-15T12:20:34.103Z,58.93
2023-03-15T12:23:20.635Z,59.22
2023-03-15T12:25:55.298Z,59.03
2023-03-15T12:28:27.255Z,58.76
2023-03-15T12:30:57.522Z,57.97
2023-03-15T12:33:25.329Z,58.20
2023-03-15T12:36:03.062Z,58.64
2023-03-15T12:38:36.318Z,59.73
2023-03-15T12:41:07.745Z,57.96
2023-03-15T12:43:39.765Z,58.06
2023-03-15T12:46:28.051Z,58.29
2023-03-15T12:49:13.386Z,56.19
2023-03-15T12:51:53.700Z,56.62
2023-03-15T12:54:23.291Z,56.75
2023-03-15T12:56:54.124Z,57.90
2023-03-15T12:59:29.066Z,56.84
2023-03-15T13:01:58.984Z,57.23
2023-03-15T13:04:27.199Z,55.30
2023-03-15T13:07:17.507Z,57.40
2023-03-15T13:09:57.753Z,56.92
2023-03-15T13:12:29.328Z,57.22
2023-03-15T13:15:01.322Z,54.02
2023-03-15T13:17:33.855Z,54.09
2023-03-15T13:20:13.930Z,54.19
2023-03-15T13:22:55.372Z,51.60
2023-03-15T13:25:30.069Z,52.51
2023-03-15T13:27:59.610Z,54.31
2023-03-15T13:30:32.655Z,52.20
2023-03-15T13:33:06.780Z,51.57
2023-03-15T13:35:40.870Z,54.05
2023-03-15T13:38:09.756Z,52.20
2023-03-15T13:40:46.251Z,52.11
2023-03-15T13:43:12.904Z,50.10
2023-03-15T13:45:42.052Z,48.88
2023-03-15T13:48:12.255Z,50.37
2023-03-15T13:50:40.714Z,48.92
2023-03-15T13:53:07.554Z,49.80
2023-03-15T13:55:36.035Z,51.51
2023-03-15T13:58:07.267Z,51.01
2023-03-15T14:00:35.885Z,50.25
2023-03-15T14:03:04.679Z,50.18
2023-03-15T14:05:34.195Z,49.30
2023-03-15T14:08:03.460Z,49.90
2023-03-15T14:10:31.545Z,48.99
2023-03-15T14:12:59.344Z,49.98
2023-03-15T14:15:34.120Z,48.82
2023-03-15T14:18:03.624Z,48.13
2023-03-15T14:20:34.941Z,45.91
2023-03-15T14:23:03.225Z,46.67
2023-03-15T14:25:35.072Z,47.66
2023-03-15T14:28:02.013Z,46.46
2023-03-15T14:30:30.456Z,45.51
2023-03-15T14:33:01.374Z,42.25
2023-03-15T14:35:30.982Z,43.32
2023-03-15T14:38:04.218Z,41.09
2023-03-15T14:40:33.136Z,45.39
2023-03-15T14:42:59.717Z,45.87
2023-03-15T14:45:26.377Z,47.45
2023-03-15T14:47:57.926Z,47.10
2023-03-15T14:50:35.320Z,45.47
2023-03-15T14:53:04.617Z,46.40
2023-03-15T14:55:33.548Z,43.84
2023-03-15T14:58:01.145Z,45.52
2023-03-15T15:00:27.975Z,45.28
2023-03-15T15:02:56.117Z,45.62
2023-03-15T15:05:26.059Z,43.41
2023-03-15T15:07:56.268Z,43.63
2023-03-15T15:10:25.256Z,45.20
2023-03-15T15:13:04.901Z,44.48
2023-03-15T15:15:43.761Z,45.09
2023-03-15T15:18:18.347Z,46.54
2023-03-15T15:20:45.555Z,45.36
2023-03-15T15:23:17.722Z,45.47
2023-03-15T15:25:46.841Z,47.37
2023-03-15T15:28:27.301Z,44.33
2023-03-15T15:30:57.896Z,44.09
2023-03-15T15:33:24.477Z,43.68
2023-03-15T15:35:53.677Z,43.96
2023-03-15T15:38:21.618Z,44.21
2023-03-15T15:40:49.579Z,45.45
2023-03-15T15:43:16.390Z,44.61
2023-03-15T15:45:43.097Z,44.98
2023-03-15T15:48:09.620Z,45.40
2023-03-15T15:50:36.895Z,45.34
2023-03-15T15:53:06.014Z,46.11
2023-03-15T15:55:35.936Z,46.23
2023-03-15T15:58:05.241Z,45.82
2023-03-15T16:00:31.793Z,45.93
2023-03-15T16:02:59.080Z,45.45
2023-03-15T16:05:28.686Z,45.35
2023-03-15T16:07:55.968Z,45.51
2023-03-15T16:10:25.349Z,45.54
2023-03-15T16:12:54.226Z,46.09
2023-03-15T16:15:22.625Z,48.07
2023-03-15T16:17:49.513Z,47.29
2023-03-15T16:20:16.895Z,47.86
2023-03-15T16:22:46.389Z,48.33
2023-03-15T16:25:19.069Z,47.88
2023-03-15T16:27:45.740Z,48.96
2023-03-15T16:30:20.527Z,50.33
2023-03-15T16:32:48.985Z,50.00
2023-03-15T16:35:16.158Z,51.48
2023-03-15T16:37:44.155Z,51.61
2023-03-15T16:40:18.152Z,52.81
2023-03-15T16:42:44.890Z,54.15
2023-03-15T16:45:13.322Z,54.21
2023-03-15T16:47:39.943Z,54.56
2023-03-15T16:50:08.109Z,53.97
2023-03-15T16:52:34.852Z,54.42
2023-03-15T16:55:02.306Z,55.34
2023-03-15T16:57:29.237Z,55.62
2023-03-15T16:59:56.300Z,56.02
2023-03-15T17:02:25.022Z,56.82
2023-03-15T17:04:52.210Z,56.82
2023-03-15T17:07:24.547Z,58.07
2023-03-15T17:09:51.723Z,58.24
2023-03-15T17:12:23.537Z,59.01
2023-03-15T17:14:50.068Z,58.81
2023-03-15T17:17:16.682Z,59.32
2023-03-15T17:19:43.400Z,60.53
2023-03-15T17:22:10.495Z,61.26
2023-03-15T17:24:38.818Z,62.34
2023-03-15T17:27:05.886Z,63.13
2023-03-15T17:29:32.531Z,62.79
2023-03-15T17:31:59.502Z,62.88
2023-03-15T17:34:26.401Z,63.84
2023-03-15T17:36:52.947Z,63.61
2023-03-15T17:39:19.600Z,63.98
2023-03-15T17:41:48.221Z,65.17
2023-03-15T17:44:14.888Z,66.40
2023-03-15T17:46:41.471Z,67.42
2023-03-15T17:49:08.581Z,66.88
2023-03-15T17:51:37.128Z,67.89
2023-03-15T17:54:13.041Z,67.96
2023-03-15T17:56:40.144Z,68.40
2023-03-15T17:59:10.118Z,68.79
2023-03-15T18:01:38.369Z,69.08
2023-03-15T18:04:06.027Z,69.94
2023-03-15T18:06:32.681Z,69.83
2023-03-15T18:08:59.282Z,70.08
2023-03-15T18:11:28.668Z,70.75
2023-03-15T18:13:55.631Z,70.81
2023-03-15T18:16:24.106Z,71.64
2023-03-15T18:18:51.983Z,71.61
2023-03-15T18:21:21.504Z,71.90
2023-03-15T18:23:49.028Z,72.55
2023-03-15T18:26:17.884Z,73.51
2023-03-15T18:28:45.082Z,73.58
2023-03-15T18:31:12.316Z,74.44
2023-03-15T18:33:40.789Z,74.63
2023-03-15T18:36:07.834Z,75.26
2023-03-15T18:38:34.652Z,75.81
2023-03-15T18:41:01.263Z,76.37
2023-03-15T18:43:28.125Z,76.56
2023-03-15T18:45:55.164Z,76.24
2023-03-15T18:48:34.182Z,76.97
2023-03-15T18:51:10.280Z,77.15
2023-03-15T18:53:36.822Z,77.44
2023-03-15T18:56:03.660Z,77.58
2023-03-15T18:58:30.430Z,77.80
2023-03-15T19:00:57.043Z,77.78
2023-03-15T19:03:23.643Z,77.99
2023-03-15T19:05:50.931Z,78.44
2023-03-15T19:08:18.814Z,78.39
2023-03-15T19:10:45.347Z,78.64
2023-03-15T19:13:11.953Z,78.83
2023-03-15T19:15:38.604Z,79.09
2023-03-15T19:18:06.091Z,79.13
2023-03-15T19:20:34.218Z,80.00
2023-03-15T19:23:00.801Z,80.61
2023-03-15T19:25:28.764Z,80.59
2023-03-15T19:27:55.694Z,80.64
2023-03-15T19:30:22.673Z,80.99
2023-03-15T19:32:50.416Z,81.04
2023-03-15T19:35:18.664Z,81.08
2023-03-15T19:37:45.999Z,81.85
2023-03-15T19:40:13.977Z,82.55
2023-03-15T19:42:41.957Z,83.15
2023-03-15T19:45:09.778Z,83.10
2023-03-15T19:47:36.310Z,83.69
2023-03-15T19:50:03.648Z,83.61
2023-03-15T19:52:31.012Z,84.01
2023-03-15T19:54:57.617Z,84.32
2023-03-15T19:57:24.213Z,84.56
2023-03-15T19:59:52.114Z,85.18
2023-03-15T20:02:18.995Z,85.26
2023-03-15T20:04:47.898Z,85.70
2023-03-15T20:07:14.586Z,85.67
2023-03-15T20:09:41.144Z,86.42
2023-03-15T20:12:10.039Z,86.15
2023-03-15T20:14:36.667Z,86.48
2023-03-15T20:17:06.950Z,86.89
2023-03-15T20:19:34.056Z,87.18
2023-03-15T20:22:00.652Z,86.90
2023-03-15T20:24:27.453Z,87.07
2023-03-15T20:26:54.239Z,87.53
2023-03-15T20:29:20.806Z,87.71
2023-03-15T20:31:47.382Z,87.71
2023-03-15T20:34:15.816Z,87.74
2023-03-15T20:36:42.615Z,88.22
2023-03-15T20:39:09.396Z,88.35
2023-03-15T20:41:36.841Z,88.36
2023-03-15T20:44:03.392Z,87.88
2023-03-15T20:46:30.127Z,88.06
2023-03-15T20:48:57.110Z,88.16
2023-03-15T20:51:25.248Z,88.24
2023-03-15T20:53:52.119Z,88.84
2023-03-15T20:56:19.051Z,88.54
2023-03-15T20:58:46.327Z,89.23
2023-03-15T21:01:13.000Z,88.48
2023-03-15T21:03:40.330Z,88.84
2023-03-15T21:06:07.707Z,89.44
2023-03-15T21:08:36.041Z,89.10
2023-03-15T21:11:04.346Z,89.49
2023-03-15T21:13:31.208Z,89.87
2023-03-15T21:15:58.383Z,90.12
2023-03-15T21:18:25.629Z,89.87
2023-03-15T21:20:57.333Z,89.92
2023-03-15T21:23:24.864Z,90.58
2023-03-15T21:25:56.270Z,90.46
2023-03-15T21:28:23.335Z,90.84
2023-03-15T21:30:50.642Z,91.17
2023-03-15T21:33:18.182Z,91.66
2023-03-15T21:35:44.975Z,91.08
2023-03-15T21:38:12.153Z,91.13
2023-03-15T21:40:39.364Z,91.53
2023-03-15T21:43:07.376Z,91.16
2023-03-15T21:45:34.037Z,91.52
2023-03-15T21:48:00.790Z,91.48
2023-03-15T21:50:27.571Z,91.71
2023-03-15T21:52:54.343Z,91.79
2023-03-15T21:55:21.348Z,92.33
2023-03-15T21:57:48.199Z,93.04
2023-03-15T22:00:17.419Z,92.35
2023-03-15T22:02:45.084Z,92.43
2023-03-15T22:05:11.718Z,91.97
2023-03-15T22:07:38.440Z,92.44
2023-03-15T22:10:05.563Z,92.64
2023-03-15T22:12:32.634Z,92.57
2023-03-15T22:15:05.200Z,93.32
2023-03-15T22:17:34.478Z,92.77
2023-03-15T22:20:01.892Z,93.05
2023-03-15T22:22:28.516Z,93.50
2023-03-15T22:24:55.330Z,94.29
2023-03-15T22:27:22.244Z,94.24
2023-03-15T22:29:48.755Z,93.71
2023-03-15T22:32:15.403Z,94.17
2023-03-15T22:34:43.378Z,93.99
2023-03-15T22:37:10.232Z,93.28
2023-03-15T22:39:36.798Z,92.84
2023-03-15T22:42:03.589Z,92.49
2023-03-15T22:44:30.581Z,92.94
2023-03-15T22:46:57.542Z,92.38
2023-03-15T22:49:24.086Z,93.01
2023-03-15T22:51:52.095Z,93.23
2023-03-15T22:54:18.664Z,93.73
2023-03-15T22:56:45.318Z,93.41
2023-03-15T22:59:11.880Z,93.86
2023-03-15T23:01:38.606Z,93.69
2023-03-15T23:04:05.314Z,93.78
2023-03-15T23:06:32.023Z,94.07
2023-03-15T23:09:00.278Z,94.41
2023-03-15T23:11:26.995Z,94.31
2023-03-15T23:13:53.580Z,94.68
2023-03-15T23:16:20.253Z,94.14
2023-03-15T23:18:46.874Z,94.64
2023-03-15T23:21:14.662Z,94.75
2023-03-15T23:23:41.554Z,95.08
2023-03-15T23:26:10.216Z,95.15
2023-03-15T23:28:36.922Z,95.14
2023-03-15T23:31:06.150Z,95.00
2023-03-15T23:33:33.076Z,95.25
2023-03-15T23:35:59.925Z,94.85
2023-03-15T23:38:26.568Z,94.19
2023-03-15T23:40:54.249Z,94.50
2023-03-15T23:43:22.531Z,94.58
2023-03-15T23:45:55.106Z,94.43
2023-03-15T23:48:21.680Z,94.32
2023-03-15T23:50:51.985Z,94.60
2023-03-15T23:53:18.675Z,94.96
2023-03-15T23:55:45.251Z,94.86
2023-03-15T23:58:11.904Z,95.42
